Time;durP1;ratioP1;P1;durP2;ratioP2;P2;SDS_P1;SDS_P2;PMS_P1;PMS_P2;Temp;Humidity;BMP_temperature;BMP_pressure;BME280_temperature;BME280_humidity;BME280_pressure;Samples;Min_cycle;Max_cycle;Signal;HPM_P1;HPM_P2
2023/01/22 00:01:38;;;;;;;81.60;17.95;;;;;;;;;;5073375;28;20212;-69
2023/01/22 00:04:05;;;;;;;80.30;16.98;;;;;;;;;;5073325;28;20230;-69
2023/01/22 00:06:32;;;;;;;78.82;16.70;;;;;;;;;;5073485;28;20498;-69
2023/01/22 00:09:02;;;;;;;77.70;18.00;;;;;;;;;;5072520;28;20579;-70
2023/01/22 00:11:31;;;;;;;80.78;18.90;;;;;;;;;;5072856;28;20223;-70
2023/01/22 00:13:58;;;;;;;78.43;18.33;;;;;;;;;;5073185;28;20303;-69
2023/01/22 00:16:25;;;;;;;80.68;18.38;;;;;;;;;;5072925;28;20206;-70
2023/01/22 00:18:52;;;;;;;76.47;16.60;;;;;;;;;;5072262;28;20231;-70
2023/01/22 00:21:19;;;;;;;84.30;17.80;;;;;;;;;;5072916;28;20200;-71
2023/01/22 00:23:46;;;;;;;79.53;16.25;;;;;;;;;;5072471;28;20223;-70
2023/01/22 00:26:14;;;;;;;76.93;16.73;;;;;;;;;;5073002;28;20697;-70
2023/01/22 00:28:44;;;;;;;81.20;17.13;;;;;;;;;;5072133;28;20640;-69
2023/01/22 00:31:11;;;;;;;79.55;18.73;;;;;;;;;;5072758;28;20335;-70
2023/01/22 00:33:39;;;;;;;79.25;16.85;;;;;;;;;;5072681;28;20318;-69
2023/01/22 00:36:06;;;;;;;77.90;18.20;;;;;;;;;;5072640;28;20214;-70
2023/01/22 00:38:33;;;;;;;75.50;16.23;;;;;;;;;;5072372;28;20214;-70
2023/01/22 00:41:01;;;;;;;77.72;17.08;;;;;;;;;;5072489;28;20208;-70
2023/01/22 00:43:28;;;;;;;78.68;18.35;;;;;;;;;;5072572;28;20225;-70
2023/01/22 00:45:57;;;;;;;77.75;16.75;;;;;;;;;;5072560;28;20203;-70
2023/01/22 00:48:24;;;;;;;81.07;18.02;;;;;;;;;;5072272;28;20588;-69
2023/01/22 00:50:51;;;;;;;76.07;16.67;;;;;;;;;;5071529;28;20209;-70
2023/01/22 00:53:18;;;;;;;77.65;17.00;;;;;;;;;;5072165;28;20237;-70
2023/01/22 00:55:51;;;;;;;76.80;16.98;;;;;;;;;;5072415;28;20205;-70
2023/01/22 00:58:18;;;;;;;77.28;16.33;;;;;;;;;;5072094;28;20213;-70
2023/01/22 01:00:45;;;;;;;76.65;17.17;;;;;;;;;;5071385;28;20236;-70
2023/01/22 01:03:30;;;;;;;77.28;16.05;;;;;;;;;;5071170;28;20733;-70
2023/01/22 01:05:58;;;;;;;75.88;17.35;;;;;;;;;;5072250;28;20209;-70
2023/01/22 01:08:25;;;;;;;80.68;18.73;;;;;;;;;;5072014;28;20666;-70
2023/01/22 01:10:54;;;;;;;78.82;16.80;;;;;;;;;;5071455;28;20207;-71
2023/01/22 01:13:21;;;;;;;81.57;17.40;;;;;;;;;;5072033;28;20225;-69
2023/01/22 01:15:48;;;;;;;78.20;16.60;;;;;;;;;;5071900;28;20587;-70
2023/01/22 01:18:17;;;;;;;79.13;16.70;;;;;;;;;;5072226;28;20212;-69
2023/01/22 01:20:44;;;;;;;85.00;19.08;;;;;;;;;;5071352;28;20582;-69
2023/01/22 01:23:11;;;;;;;77.75;17.42;;;;;;;;;;5071914;28;20225;-70
2023/01/22 01:25:41;;;;;;;75.65;14.98;;;;;;;;;;5071956;28;20213;-69
2023/01/22 01:28:08;;;;;;;78.65;16.55;;;;;;;;;;5072101;28;20211;-69
2023/01/22 01:30:35;;;;;;;79.30;17.88;;;;;;;;;;5070995;28;20205;-69
2023/01/22 01:33:02;;;;;;;79.95;17.90;;;;;;;;;;5072162;28;20266;-69
2023/01/22 01:35:31;;;;;;;73.40;15.13;;;;;;;;;;5071649;28;20205;-69
2023/01/22 01:37:58;;;;;;;78.82;16.63;;;;;;;;;;5071822;28;20201;-70
2023/01/22 01:40:25;;;;;;;76.10;15.50;;;;;;;;;;5071030;28;20677;-69
2023/01/22 01:42:52;;;;;;;77.25;17.17;;;;;;;;;;5071560;28;20246;-70
2023/01/22 01:45:20;;;;;;;79.43;16.95;;;;;;;;;;5071852;28;20253;-70
2023/01/22 01:47:49;;;;;;;77.70;16.42;;;;;;;;;;5071563;28;20700;-70
2023/01/22 01:50:17;;;;;;;79.45;17.13;;;;;;;;;;5070923;28;20580;-69
2023/01/22 01:52:45;;;;;;;76.60;16.20;;;;;;;;;;5071359;28;20760;-69
2023/01/22 01:55:13;;;;;;;81.28;17.13;;;;;;;;;;5071434;28;20213;-71
2023/01/22 01:57:40;;;;;;;77.47;16.52;;;;;;;;;;5071385;28;20207;-70
2023/01/22 02:00:10;;;;;;;79.18;17.17;;;;;;;;;;5070914;28;20208;-69
2023/01/22 02:02:37;;;;;;;79.47;16.67;;;;;;;;;;5071664;28;20217;-69
2023/01/22 02:05:04;;;;;;;75.47;16.55;;;;;;;;;;5071594;28;20216;-69
2023/01/22 02:07:31;;;;;;;82.18;18.67;;;;;;;;;;5071534;28;20280;-70
2023/01/22 02:10:03;;;;;;;81.22;17.98;;;;;;;;;;5070499;28;20217;-69
2023/01/22 02:12:30;;;;;;;77.53;16.40;;;;;;;;;;5071615;28;20646;-69
2023/01/22 02:14:58;;;;;;;78.47;18.60;;;;;;;;;;5075531;28;20213;-69
2023/01/22 02:17:25;;;;;;;75.72;16.38;;;;;;;;;;5075346;28;20209;-70
2023/01/22 02:19:52;;;;;;;80.28;16.67;;;;;;;;;;5074663;28;20211;-70
2023/01/22 02:22:22;;;;;;;79.05;16.92;;;;;;;;;;5075140;28;20223;-69
2023/01/22 02:24:49;;;;;;;79.93;17.90;;;;;;;;;;5075326;28;20213;-70
2023/01/22 02:27:16;;;;;;;75.78;16.00;;;;;;;;;;5075464;28;20205;-70
2023/01/22 02:29:43;;;;;;;77.85;16.98;;;;;;;;;;5074242;28;20221;-69
2023/01/22 02:32:11;;;;;;;80.88;18.98;;;;;;;;;;5075007;28;20226;-70
2023/01/22 02:34:38;;;;;;;74.38;15.25;;;;;;;;;;5074995;28;20210;-69
2023/01/22 02:37:05;;;;;;;74.22;15.45;;;;;;;;;;5074746;28;20215;-70
2023/01/22 02:39:33;;;;;;;78.35;18.17;;;;;;;;;;5074261;28;20205;-70
2023/01/22 02:42:01;;;;;;;79.63;17.45;;;;;;;;;;5074858;28;20203;-70
2023/01/22 02:44:28;;;;;;;76.03;18.05;;;;;;;;;;5071034;28;20674;-69
2023/01/22 02:46:55;;;;;;;75.60;15.88;;;;;;;;;;5074617;28;20231;-69
2023/01/22 02:49:22;;;;;;;81.00;18.88;;;;;;;;;;5074190;28;20210;-69
2023/01/22 02:51:50;;;;;;;77.30;16.48;;;;;;;;;;5074536;28;20232;-69
2023/01/22 02:54:17;;;;;;;76.95;16.98;;;;;;;;;;5074608;28;20228;-71
2023/01/22 02:56:45;;;;;;;74.57;15.30;;;;;;;;;;5074458;28;20214;-70
2023/01/22 02:59:12;;;;;;;77.38;16.95;;;;;;;;;;5073766;28;20211;-69
2023/01/22 03:01:39;;;;;;;77.25;17.55;;;;;;;;;;5074327;28;20202;-70
2023/01/22 03:04:09;;;;;;;80.35;16.83;;;;;;;;;;5074402;28;20722;-69
2023/01/22 03:06:37;;;;;;;82.72;17.52;;;;;;;;;;5074619;28;20208;-69
2023/01/22 03:09:04;;;;;;;77.72;16.65;;;;;;;;;;5073745;28;20211;-70
2023/01/22 03:11:32;;;;;;;79.07;16.38;;;;;;;;;;5074198;28;20319;-70
2023/01/22 03:22:15;;;;;;;77.40;16.13;;;;;;;;;;5074010;28;20230;-69
2023/01/22 03:24:42;;;;;;;77.00;16.23;;;;;;;;;;5073134;28;20237;-70
2023/01/22 03:27:09;;;;;;;78.25;15.38;;;;;;;;;;5074173;28;20209;-69
2023/01/22 03:29:38;;;;;;;78.20;18.15;;;;;;;;;;5073286;28;20214;-69
2023/01/22 03:32:05;;;;;;;79.60;16.73;;;;;;;;;;5073686;28;20701;-69
2023/01/22 03:34:32;;;;;;;76.13;15.55;;;;;;;;;;5073826;28;20209;-69
2023/01/22 03:36:59;;;;;;;77.15;16.27;;;;;;;;;;5073668;28;20218;-69
2023/01/22 03:39:26;;;;;;;79.90;17.02;;;;;;;;;;5073200;28;20212;-69
2023/01/22 03:41:53;;;;;;;75.13;15.27;;;;;;;;;;5073834;28;20590;-69
2023/01/22 03:44:21;;;;;;;73.00;14.90;;;;;;;;;;5073651;28;20712;-70
2023/01/22 03:46:49;;;;;;;77.35;16.50;;;;;;;;;;5073511;28;20696;-69
2023/01/22 03:49:16;;;;;;;73.95;15.00;;;;;;;;;;5072759;28;20223;-71
2023/01/22 03:51:44;;;;;;;78.15;16.73;;;;;;;;;;5073248;28;20582;-69
2023/01/22 03:54:11;;;;;;;77.72;16.90;;;;;;;;;;5073657;28;20223;-70
2023/01/22 03:56:39;;;;;;;76.55;16.42;;;;;;;;;;5073357;28;20214;-69
2023/01/22 03:59:06;;;;;;;75.72;16.02;;;;;;;;;;5072696;28;20584;-69
2023/01/22 04:01:33;;;;;;;74.03;15.48;;;;;;;;;;5073383;28;20349;-69
2023/01/22 04:04:02;;;;;;;80.80;17.73;;;;;;;;;;5073135;28;20603;-70
2023/01/22 04:06:29;;;;;;;76.97;16.42;;;;;;;;;;5073576;28;20213;-70
2023/01/22 04:08:56;;;;;;;79.38;16.40;;;;;;;;;;5072583;28;20211;-69
2023/01/22 04:11:23;;;;;;;83.45;18.80;;;;;;;;;;5073246;28;20213;-70
2023/01/22 04:13:51;;;;;;;77.60;16.23;;;;;;;;;;5072846;28;20232;-69
2023/01/22 04:16:18;;;;;;;78.25;16.40;;;;;;;;;;5073106;28;20205;-70
2023/01/22 04:18:45;;;;;;;74.65;15.63;;;;;;;;;;5072224;28;20579;-70
2023/01/22 04:21:13;;;;;;;79.88;16.55;;;;;;;;;;5073145;28;20578;-70
2023/01/22 04:23:40;;;;;;;79.22;16.25;;;;;;;;;;5072782;28;20225;-69
2023/01/22 04:26:08;;;;;;;77.22;17.17;;;;;;;;;;5073121;28;20583;-70
2023/01/22 04:28:35;;;;;;;76.88;16.92;;;;;;;;;;5072048;28;20214;-70
2023/01/22 04:31:03;;;;;;;75.30;15.77;;;;;;;;;;5072864;28;20205;-70
2023/01/22 04:33:30;;;;;;;76.35;16.15;;;;;;;;;;5072751;28;20246;-69
2023/01/22 04:35:57;;;;;;;77.45;16.65;;;;;;;;;;5072826;28;20673;-69
2023/01/22 04:38:26;;;;;;;76.80;17.08;;;;;;;;;;5072684;28;20592;-69
2023/01/22 04:40:53;;;;;;;75.15;15.50;;;;;;;;;;5072160;28;20214;-70
2023/01/22 04:43:20;;;;;;;73.70;14.73;;;;;;;;;;5072385;28;20718;-70
2023/01/22 04:45:47;;;;;;;78.70;17.30;;;;;;;;;;5072344;28;20216;-69
2023/01/22 04:48:14;;;;;;;76.82;16.30;;;;;;;;;;5072266;28;20218;-70
2023/01/22 04:50:41;;;;;;;76.88;16.42;;;;;;;;;;5071810;28;20232;-69
2023/01/22 04:53:08;;;;;;;78.70;16.90;;;;;;;;;;5072246;28;20234;-70
2023/01/22 04:55:37;;;;;;;75.47;16.30;;;;;;;;;;5072260;28;20212;-69
2023/01/22 04:58:04;;;;;;;74.35;15.65;;;;;;;;;;5072176;28;20241;-70
2023/01/22 05:00:31;;;;;;;74.88;15.50;;;;;;;;;;5071629;28;20674;-70
2023/01/22 05:02:59;;;;;;;78.43;16.38;;;;;;;;;;5072228;28;20241;-70
2023/01/22 05:05:26;;;;;;;74.82;16.02;;;;;;;;;;5072188;28;20203;-69
2023/01/22 05:07:53;;;;;;;78.05;17.13;;;;;;;;;;5072132;28;20205;-70
2023/01/22 05:10:21;;;;;;;79.70;17.48;;;;;;;;;;5071401;28;20228;-70
2023/01/22 05:12:49;;;;;;;76.00;17.35;;;;;;;;;;5071657;28;20237;-69
2023/01/22 05:15:17;;;;;;;78.75;17.95;;;;;;;;;;5072185;28;20207;-70
2023/01/22 05:17:44;;;;;;;81.53;17.50;;;;;;;;;;5071923;28;20671;-70
2023/01/22 05:20:11;;;;;;;77.93;15.43;;;;;;;;;;5071528;28;20204;-71
2023/01/22 05:22:38;;;;;;;82.68;17.25;;;;;;;;;;5071872;28;20568;-69
2023/01/22 05:25:06;;;;;;;75.32;16.23;;;;;;;;;;5072056;28;20222;-69
2023/01/22 05:27:33;;;;;;;76.28;17.63;;;;;;;;;;5071737;28;20210;-69
2023/01/22 05:30:01;;;;;;;75.38;16.65;;;;;;;;;;5071376;28;20217;-69
2023/01/22 05:32:28;;;;;;;76.43;17.52;;;;;;;;;;5071538;28;20232;-70
2023/01/22 05:34:56;;;;;;;76.03;16.90;;;;;;;;;;5071827;28;20202;-70
2023/01/22 05:37:23;;;;;;;77.25;16.33;;;;;;;;;;5071693;28;20675;-69
2023/01/22 05:39:50;;;;;;;77.43;16.63;;;;;;;;;;5070953;28;20202;-69
2023/01/22 05:42:17;;;;;;;74.55;16.42;;;;;;;;;;5071572;28;20225;-70
2023/01/22 05:44:44;;;;;;;77.25;17.08;;;;;;;;;;5071997;28;20205;-70
2023/01/22 05:47:14;;;;;;;76.20;17.02;;;;;;;;;;5072062;28;20683;-70
2023/01/22 05:49:41;;;;;;;76.00;17.42;;;;;;;;;;5077447;28;20211;-70
2023/01/22 05:52:09;;;;;;;78.22;18.20;;;;;;;;;;5078221;28;20201;-70
2023/01/22 05:54:37;;;;;;;80.05;18.25;;;;;;;;;;5078342;28;20197;-69
2023/01/22 05:57:04;;;;;;;76.30;16.20;;;;;;;;;;5078422;28;20272;-70
2023/01/22 05:59:31;;;;;;;78.35;18.33;;;;;;;;;;5077401;28;20673;-70
2023/01/22 06:01:59;;;;;;;76.75;16.55;;;;;;;;;;5078181;28;20201;-70
2023/01/22 06:04:27;;;;;;;77.75;17.27;;;;;;;;;;5078303;28;20212;-70
2023/01/22 06:06:54;;;;;;;76.82;16.80;;;;;;;;;;5078026;28;20213;-70
2023/01/22 06:09:21;;;;;;;75.88;16.10;;;;;;;;;;5077527;28;20212;-70
2023/01/22 06:11:49;;;;;;;80.60;18.25;;;;;;;;;;5078205;28;20666;-70
2023/01/22 06:14:16;;;;;;;77.25;16.65;;;;;;;;;;5078018;28;20242;-70
2023/01/22 06:16:43;;;;;;;77.30;17.63;;;;;;;;;;5078323;28;20214;-70
2023/01/22 06:19:11;;;;;;;80.45;19.27;;;;;;;;;;5077368;28;20204;-70
2023/01/22 06:21:39;;;;;;;77.80;18.00;;;;;;;;;;5077903;28;20670;-69
2023/01/22 06:24:07;;;;;;;82.32;19.25;;;;;;;;;;5077984;28;20233;-70
2023/01/22 06:26:34;;;;;;;75.50;16.90;;;;;;;;;;5077968;28;20695;-69
2023/01/22 06:29:01;;;;;;;80.63;18.40;;;;;;;;;;5077266;28;20201;-70
2023/01/22 06:31:29;;;;;;;78.35;17.75;;;;;;;;;;5077894;28;20202;-69
2023/01/22 06:33:56;;;;;;;79.45;17.42;;;;;;;;;;5077752;28;20264;-70
2023/01/22 06:36:24;;;;;;;75.55;17.50;;;;;;;;;;5077824;28;20612;-70
2023/01/22 06:38:53;;;;;;;79.65;17.67;;;;;;;;;;5077455;28;20207;-69
2023/01/22 06:41:20;;;;;;;81.00;19.13;;;;;;;;;;5078136;28;20252;-70
2023/01/22 06:43:47;;;;;;;84.82;19.58;;;;;;;;;;5077795;28;20221;-70
2023/01/22 06:46:14;;;;;;;80.68;18.60;;;;;;;;;;5077657;28;20211;-69
2023/01/22 06:48:42;;;;;;;80.93;18.00;;;;;;;;;;5076971;28;20205;-69
2023/01/22 06:51:09;;;;;;;81.20;18.92;;;;;;;;;;5077666;28;20212;-69
2023/01/22 06:53:37;;;;;;;80.38;19.30;;;;;;;;;;5077979;28;20240;-69
2023/01/22 06:56:05;;;;;;;77.03;17.88;;;;;;;;;;5077976;28;20561;-70
2023/01/22 06:58:33;;;;;;;79.00;18.35;;;;;;;;;;5077118;28;20206;-69
2023/01/22 07:01:00;;;;;;;80.30;17.45;;;;;;;;;;5073218;28;20202;-69
2023/01/22 07:03:27;;;;;;;82.05;18.35;;;;;;;;;;5074410;28;20596;-69
2023/01/22 07:05:58;;;;;;;78.40;18.27;;;;;;;;;;5074583;28;20594;-69
2023/01/22 07:08:25;;;;;;;78.53;18.13;;;;;;;;;;5074461;28;20577;-69
2023/01/22 07:10:53;;;;;;;82.13;18.02;;;;;;;;;;5073827;28;20579;-69
2023/01/22 07:13:21;;;;;;;82.75;19.65;;;;;;;;;;5074212;28;20242;-70
2023/01/22 07:15:48;;;;;;;77.85;17.45;;;;;;;;;;5074070;28;20215;-70
2023/01/22 07:18:18;;;;;;;83.10;19.83;;;;;;;;;;5074239;28;20206;-69
2023/01/22 07:20:46;;;;;;;78.68;18.58;;;;;;;;;;5073758;28;20202;-69
2023/01/22 07:23:13;;;;;;;80.68;19.50;;;;;;;;;;5074149;28;20642;-69
2023/01/22 07:25:40;;;;;;;80.95;18.65;;;;;;;;;;5073964;28;20215;-70
2023/01/22 07:28:08;;;;;;;87.80;21.02;;;;;;;;;;5073918;28;20206;-69
2023/01/22 07:30:37;;;;;;;80.32;19.00;;;;;;;;;;5073424;28;20618;-69
2023/01/22 07:33:05;;;;;;;82.00;19.55;;;;;;;;;;5073706;28;20703;-69
2023/01/22 07:35:32;;;;;;;94.22;25.25;;;;;;;;;;5073937;28;20209;-69
2023/01/22 07:38:00;;;;;;;80.60;20.75;;;;;;;;;;5073929;28;20202;-69
2023/01/22 07:40:27;;;;;;;84.05;20.80;;;;;;;;;;5073084;28;20216;-69
2023/01/22 07:42:55;;;;;;;84.53;20.15;;;;;;;;;;5073532;28;20231;-69
2023/01/22 07:45:23;;;;;;;81.18;18.70;;;;;;;;;;5073895;28;20210;-69
2023/01/22 07:47:55;;;;;;;85.38;20.70;;;;;;;;;;5073739;28;20217;-69
2023/01/22 07:50:22;;;;;;;83.18;21.00;;;;;;;;;;5072865;28;20206;-69
2023/01/22 07:52:50;;;;;;;83.68;19.50;;;;;;;;;;5073461;28;20232;-68
2023/01/22 07:55:17;;;;;;;83.60;19.55;;;;;;;;;;5073344;28;20201;-69
2023/01/22 07:57:44;;;;;;;83.95;19.70;;;;;;;;;;5073463;28;20213;-69
2023/01/22 08:00:14;;;;;;;83.15;20.30;;;;;;;;;;5072775;28;20233;-69
2023/01/22 08:02:41;;;;;;;84.22;21.48;;;;;;;;;;5073329;28;20227;-69
2023/01/22 08:05:12;;;;;;;82.32;21.35;;;;;;;;;;5073737;28;20633;-69
2023/01/22 08:07:39;;;;;;;83.30;20.00;;;;;;;;;;5073296;28;20211;-70
2023/01/22 08:10:07;;;;;;;84.72;21.30;;;;;;;;;;5072408;28;20217;-69
2023/01/22 08:12:36;;;;;;;92.45;23.40;;;;;;;;;;5072976;28;20227;-69
2023/01/22 08:15:03;;;;;;;89.43;23.85;;;;;;;;;;5073125;28;20595;-69
2023/01/22 08:17:30;;;;;;;88.50;23.02;;;;;;;;;;5073117;28;20211;-69
2023/01/22 08:19:57;;;;;;;86.55;21.35;;;;;;;;;;5063841;28;20199;-69
2023/01/22 08:22:25;;;;;;;84.05;20.73;;;;;;;;;;5054661;28;20253;-69
2023/01/22 08:24:53;;;;;;;84.68;20.95;;;;;;;;;;5053012;28;20214;-69
2023/01/22 08:27:20;;;;;;;83.38;20.95;;;;;;;;;;5052791;28;20680;-70
2023/01/22 08:29:48;;;;;;;87.70;22.58;;;;;;;;;;5052154;28;20208;-69
2023/01/22 08:32:15;;;;;;;92.05;20.60;;;;;;;;;;5052778;28;20239;-69
2023/01/22 08:34:43;;;;;;;85.57;20.70;;;;;;;;;;5052687;28;20230;-69
2023/01/22 08:37:10;;;;;;;83.13;20.70;;;;;;;;;;5052628;28;20547;-69
2023/01/22 08:39:38;;;;;;;85.85;18.75;;;;;;;;;;5051850;28;20697;-70
2023/01/22 08:42:05;;;;;;;84.25;21.17;;;;;;;;;;5052689;28;20212;-70
2023/01/22 08:44:32;;;;;;;82.05;19.35;;;;;;;;;;5052729;28;20208;-70
2023/01/22 08:47:00;;;;;;;82.65;20.27;;;;;;;;;;5052537;28;20204;-69
2023/01/22 08:49:29;;;;;;;84.45;19.48;;;;;;;;;;5051532;28;20210;-69
2023/01/22 08:51:56;;;;;;;84.30;21.13;;;;;;;;;;5052055;28;20206;-70
2023/01/22 08:54:25;;;;;;;86.43;20.95;;;;;;;;;;5052275;28;20706;-70
2023/01/22 08:56:53;;;;;;;86.80;21.58;;;;;;;;;;5052455;28;20215;-69
2023/01/22 08:59:20;;;;;;;82.93;21.10;;;;;;;;;;5051506;28;20202;-70
2023/01/22 09:01:47;;;;;;;86.80;22.50;;;;;;;;;;5052154;28;20222;-70
2023/01/22 09:04:15;;;;;;;84.75;20.33;;;;;;;;;;5052673;28;20575;-70
2023/01/22 09:06:42;;;;;;;85.68;21.63;;;;;;;;;;5052338;28;20237;-70
2023/01/22 09:09:09;;;;;;;85.50;20.85;;;;;;;;;;5051247;28;20700;-71
2023/01/22 09:11:36;;;;;;;83.82;20.60;;;;;;;;;;5052057;28;20681;-70
2023/01/22 09:14:07;;;;;;;88.57;18.88;;;;;;;;;;5052028;28;20233;-70
2023/01/22 09:16:34;;;;;;;84.60;20.75;;;;;;;;;;5051915;28;20204;-70
2023/01/22 09:19:01;;;;;;;85.47;21.40;;;;;;;;;;5051145;28;20669;-70
2023/01/22 09:21:28;;;;;;;85.13;20.35;;;;;;;;;;5052042;28;20224;-70
2023/01/22 09:23:55;;;;;;;86.35;19.35;;;;;;;;;;5050997;28;20243;-70
2023/01/22 09:26:22;;;;;;;85.18;18.98;;;;;;;;;;5052132;28;20207;-70
2023/01/22 09:28:50;;;;;;;87.72;21.55;;;;;;;;;;5051081;28;20217;-71
2023/01/22 09:31:18;;;;;;;87.00;21.80;;;;;;;;;;5051595;28;20216;-70
2023/01/22 09:33:45;;;;;;;83.65;20.40;;;;;;;;;;5051787;28;20232;-70
2023/01/22 09:36:13;;;;;;;88.10;21.75;;;;;;;;;;5051865;28;20234;-70
2023/01/22 09:38:41;;;;;;;86.47;19.90;;;;;;;;;;5051053;28;20216;-70
2023/01/22 09:41:13;;;;;;;86.00;22.10;;;;;;;;;;5051729;28;20207;-71
2023/01/22 09:43:46;;;;;;;85.00;20.48;;;;;;;;;;5051683;28;20603;-70
2023/01/22 09:46:16;;;;;;;83.15;20.40;;;;;;;;;;5051991;28;20700;-70
2023/01/22 09:48:46;;;;;;;84.68;19.90;;;;;;;;;;5050909;28;20212;-70
2023/01/22 09:51:14;;;;;;;83.97;20.75;;;;;;;;;;5051722;28;20215;-70
2023/01/22 09:53:42;;;;;;;83.57;20.90;;;;;;;;;;5051396;28;20232;-70
2023/01/22 09:56:15;;;;;;;81.75;19.25;;;;;;;;;;5051419;28;20208;-70
2023/01/22 09:58:42;;;;;;;83.45;19.35;;;;;;;;;;5050944;28;20218;-69
2023/01/22 10:01:09;;;;;;;83.35;19.52;;;;;;;;;;5051619;28;20206;-70
2023/01/22 10:03:38;;;;;;;83.35;19.13;;;;;;;;;;5051433;28;20232;-70
2023/01/22 10:06:09;;;;;;;81.28;18.95;;;;;;;;;;5051400;28;20684;-70
2023/01/22 10:08:39;;;;;;;81.47;19.52;;;;;;;;;;5050466;28;20677;-71
2023/01/22 10:11:08;;;;;;;79.15;17.75;;;;;;;;;;5051551;28;20205;-70
2023/01/22 10:13:36;;;;;;;83.82;18.30;;;;;;;;;;5051312;28;20233;-70
2023/01/22 10:16:04;;;;;;;83.93;19.65;;;;;;;;;;5051414;28;20556;-70
2023/01/22 10:18:34;;;;;;;81.93;19.40;;;;;;;;;;5051124;28;20218;-70
2023/01/22 10:21:02;;;;;;;86.50;21.35;;;;;;;;;;5051206;28;20208;-71
2023/01/22 10:23:33;;;;;;;78.82;17.60;;;;;;;;;;5051387;28;20235;-70
2023/01/22 10:26:02;;;;;;;79.50;18.85;;;;;;;;;;5051360;28;20209;-69
2023/01/22 10:28:29;;;;;;;81.95;18.30;;;;;;;;;;5051015;28;20205;-70
2023/01/22 10:30:57;;;;;;;78.38;16.98;;;;;;;;;;5051045;28;20231;-69
2023/01/22 10:33:25;;;;;;;81.90;17.70;;;;;;;;;;5070808;28;20757;-69
2023/01/22 10:35:55;;;;;;;78.13;18.48;;;;;;;;;;5073801;28;20232;-69
2023/01/22 10:38:23;;;;;;;78.15;17.25;;;;;;;;;;5070460;28;20295;-70
2023/01/22 10:40:54;;;;;;;78.45;15.55;;;;;;;;;;5073523;28;20556;-70
2023/01/22 10:43:21;;;;;;;77.45;17.60;;;;;;;;;;5074371;28;20604;-69
2023/01/22 10:45:52;;;;;;;81.45;17.70;;;;;;;;;;5073999;28;20208;-69
2023/01/22 10:48:20;;;;;;;80.03;17.58;;;;;;;;;;5074209;28;20687;-70
2023/01/22 10:50:47;;;;;;;81.78;17.60;;;;;;;;;;5073549;28;20213;-68
2023/01/22 10:53:18;;;;;;;77.32;16.65;;;;;;;;;;5074281;28;20225;-68
2023/01/22 10:55:51;;;;;;;77.53;17.13;;;;;;;;;;5074182;28;20645;-68
2023/01/22 10:58:21;;;;;;;77.10;16.65;;;;;;;;;;5074107;28;20218;-69
2023/01/22 11:00:56;;;;;;;74.97;15.52;;;;;;;;;;5073795;28;20201;-69
2023/01/22 11:03:24;;;;;;;78.72;17.55;;;;;;;;;;5074180;28;20232;-68
2023/01/22 11:05:53;;;;;;;78.85;17.08;;;;;;;;;;5074201;28;20582;-68
2023/01/22 11:08:22;;;;;;;85.28;17.10;;;;;;;;;;5073934;28;20200;-68
2023/01/22 11:10:52;;;;;;;120.90;36.55;;;;;;;;;;5073808;28;20611;-69
2023/01/22 11:13:22;;;;;;;84.50;19.23;;;;;;;;;;5073972;28;20545;-69
2023/01/22 11:15:53;;;;;;;76.32;16.88;;;;;;;;;;5074374;28;20229;-69
2023/01/22 11:18:27;;;;;;;78.63;17.92;;;;;;;;;;5074381;28;20262;-69
2023/01/22 11:20:55;;;;;;;76.88;17.60;;;;;;;;;;5073578;28;20714;-69
2023/01/22 11:23:27;;;;;;;77.93;17.65;;;;;;;;;;5074042;28;20232;-69
2023/01/22 11:25:59;;;;;;;76.75;16.80;;;;;;;;;;5073876;28;20219;-69
2023/01/22 11:28:40;;;;;;;76.13;16.50;;;;;;;;;;5073887;28;20213;-69
2023/01/22 11:31:13;;;;;;;73.20;14.55;;;;;;;;;;5074035;28;20570;-69
2023/01/22 11:33:47;;;;;;;76.72;17.52;;;;;;;;;;5073863;28;20230;-69
2023/01/22 11:36:17;;;;;;;79.85;17.55;;;;;;;;;;5073767;28;20724;-69
2023/01/22 11:38:48;;;;;;;77.00;16.75;;;;;;;;;;5073392;28;20215;-69
2023/01/22 11:41:25;;;;;;;75.97;16.17;;;;;;;;;;5073839;28;20208;-69
2023/01/22 11:44:06;;;;;;;80.80;19.08;;;;;;;;;;5073596;28;20715;-69
2023/01/22 11:46:43;;;;;;;78.82;16.42;;;;;;;;;;5060051;28;20208;-69
2023/01/22 11:49:15;;;;;;;78.97;17.00;;;;;;;;;;5073025;28;20612;-69
2023/01/22 11:51:48;;;;;;;76.60;16.85;;;;;;;;;;5073720;28;20219;-68
2023/01/22 11:54:21;;;;;;;76.63;17.42;;;;;;;;;;5073585;28;20228;-69
2023/01/22 11:56:53;;;;;;;78.43;18.90;;;;;;;;;;5073653;28;20221;-69
2023/01/22 11:59:26;;;;;;;78.93;18.25;;;;;;;;;;5072864;28;20223;-69
2023/01/22 12:02:04;;;;;;;78.32;16.63;;;;;;;;;;5073330;28;20670;-69
2023/01/22 12:04:46;;;;;;;79.65;17.08;;;;;;;;;;5073286;28;20652;-68
2023/01/22 12:07:27;;;;;;;80.35;17.50;;;;;;;;;;5073272;28;20222;-69
2023/01/22 12:09:58;;;;;;;78.50;18.05;;;;;;;;;;5072642;28;20205;-69
2023/01/22 12:12:31;;;;;;;79.57;16.60;;;;;;;;;;5073209;28;20228;-69
2023/01/22 12:15:05;;;;;;;79.18;19.35;;;;;;;;;;5073105;28;20229;-69
2023/01/22 12:17:41;;;;;;;77.72;17.30;;;;;;;;;;5073080;28;20242;-68
2023/01/22 12:20:18;;;;;;;80.65;17.95;;;;;;;;;;5072148;28;20211;-69
2023/01/22 12:22:49;;;;;;;76.82;17.45;;;;;;;;;;5072834;28;20796;-68
2023/01/22 12:25:20;;;;;;;80.70;18.48;;;;;;;;;;5072712;28;20209;-69
2023/01/22 12:27:49;;;;;;;76.63;17.20;;;;;;;;;;5072898;28;20212;-69
2023/01/22 12:30:21;;;;;;;82.80;18.20;;;;;;;;;;5071887;28;20575;-69
2023/01/22 12:32:52;;;;;;;80.07;17.60;;;;;;;;;;5072634;28;20223;-68
2023/01/22 12:35:20;;;;;;;75.97;17.20;;;;;;;;;;5072811;28;20228;-68
2023/01/22 12:37:49;;;;;;;77.47;16.42;;;;;;;;;;5072630;28;20212;-68
2023/01/22 12:40:25;;;;;;;73.80;15.98;;;;;;;;;;5071742;28;20209;-69
2023/01/22 12:42:56;;;;;;;74.63;15.48;;;;;;;;;;5072387;28;20229;-68
2023/01/22 12:45:26;;;;;;;77.53;16.25;;;;;;;;;;5072698;28;20205;-69
2023/01/22 12:47:59;;;;;;;79.68;16.25;;;;;;;;;;5072659;28;20230;-69
2023/01/22 12:50:27;;;;;;;75.50;16.13;;;;;;;;;;5071700;28;20232;-69
2023/01/22 12:52:59;;;;;;;75.20;14.98;;;;;;;;;;5072257;28;20224;-69
2023/01/22 12:55:30;;;;;;;76.20;14.98;;;;;;;;;;5072137;28;20602;-69
2023/01/22 12:57:58;;;;;;;76.05;14.70;;;;;;;;;;5071130;28;20702;-69
2023/01/22 13:00:32;;;;;;;73.97;14.52;;;;;;;;;;5071606;28;20212;-68
2023/01/22 13:03:01;;;;;;;73.60;15.23;;;;;;;;;;5072186;28;20267;-68
2023/01/22 13:05:44;;;;;;;75.15;15.18;;;;;;;;;;5072142;28;20208;-68
2023/01/22 13:08:24;;;;;;;73.40;14.57;;;;;;;;;;5072248;28;20262;-68
2023/01/22 13:10:53;;;;;;;74.82;15.43;;;;;;;;;;5071609;28;20218;-69
2023/01/22 13:13:23;;;;;;;74.03;14.88;;;;;;;;;;5072160;28;20228;-68
2023/01/22 13:15:53;;;;;;;75.90;14.80;;;;;;;;;;5071912;28;20229;-69
2023/01/22 13:18:24;;;;;;;74.75;14.70;;;;;;;;;;5071946;28;20274;-69
2023/01/22 13:20:54;;;;;;;69.05;13.07;;;;;;;;;;5071541;28;20588;-68
2023/01/22 13:23:22;;;;;;;73.03;14.27;;;;;;;;;;5071761;28;20232;-68
2023/01/22 13:25:54;;;;;;;76.10;15.73;;;;;;;;;;5071804;28;20208;-68
2023/01/22 13:28:21;;;;;;;73.43;14.98;;;;;;;;;;5071891;28;20215;-69
2023/01/22 13:30:56;;;;;;;73.80;15.77;;;;;;;;;;5070945;28;20205;-68
2023/01/22 13:33:24;;;;;;;70.68;14.10;;;;;;;;;;5071866;28;20227;-68
2023/01/22 13:35:51;;;;;;;74.60;15.30;;;;;;;;;;5071809;28;20235;-68
2023/01/22 13:38:20;;;;;;;74.38;16.00;;;;;;;;;;5071647;28;20201;-68
2023/01/22 13:40:48;;;;;;;73.72;15.75;;;;;;;;;;5071168;28;20212;-68
2023/01/22 13:43:16;;;;;;;85.45;25.15;;;;;;;;;;5071491;28;20248;-68
2023/01/22 13:45:43;;;;;;;77.30;17.35;;;;;;;;;;5071639;28;20684;-68
2023/01/22 13:48:14;;;;;;;75.70;17.33;;;;;;;;;;5071665;28;20208;-69
2023/01/22 13:50:46;;;;;;;79.05;20.75;;;;;;;;;;5070710;28;20209;-68
2023/01/22 13:53:23;;;;;;;86.53;27.80;;;;;;;;;;5071454;28;20315;-68
2023/01/22 13:55:51;;;;;;;69.22;13.10;;;;;;;;;;5071386;28;20233;-69
2023/01/22 13:58:31;;;;;;;72.18;14.10;;;;;;;;;;5071808;28;20204;-68
2023/01/22 14:00:58;;;;;;;70.25;13.05;;;;;;;;;;5071547;28;20241;-69
2023/01/22 14:03:26;;;;;;;68.85;11.63;;;;;;;;;;5071344;28;20228;-69
2023/01/22 14:06:03;;;;;;;68.85;12.18;;;;;;;;;;5071480;28;20201;-68
2023/01/22 14:08:30;;;;;;;70.47;12.80;;;;;;;;;;5071669;28;20564;-69
2023/01/22 14:10:58;;;;;;;72.75;13.02;;;;;;;;;;5075548;28;20207;-69
2023/01/22 14:13:25;;;;;;;68.90;13.07;;;;;;;;;;5075467;28;20221;-69
2023/01/22 14:15:57;;;;;;;71.65;11.95;;;;;;;;;;5075381;28;20235;-68
2023/01/22 14:18:24;;;;;;;70.25;11.73;;;;;;;;;;5075234;28;20632;-68
2023/01/22 14:20:51;;;;;;;69.75;11.45;;;;;;;;;;5074424;28;20216;-68
2023/01/22 14:23:20;;;;;;;67.75;11.85;;;;;;;;;;5075345;28;20235;-69
2023/01/22 14:25:48;;;;;;;69.07;11.73;;;;;;;;;;5075273;28;20219;-68
2023/01/22 14:28:16;;;;;;;70.53;11.93;;;;;;;;;;5075094;28;20208;-68
2023/01/22 14:30:43;;;;;;;68.05;12.02;;;;;;;;;;5074343;28;20209;-68
2023/01/22 14:33:11;;;;;;;71.18;14.02;;;;;;;;;;5074851;28;20228;-69